sensor_id;sensor_type;location;lat;lon;timestamp;pressure;altitude;pressure_sealevel;temperature;humidity
28701;BME280;15877;52.344;16.790;2023-02-20T00:00:22;101095.97;;;5.34;60.08
28701;BME280;15877;52.344;16.790;2023-02-20T00:03:16;101098.02;;;4.99;60.92
28701;BME280;15877;52.344;16.790;2023-02-20T00:05:48;101099.62;;;4.94;61.53
28701;BME280;15877;52.344;16.790;2023-02-20T00:08:21;101097.29;;;5.05;61.59
28701;BME280;15877;52.344;16.790;2023-02-20T00:10:54;101097.84;;;4.99;61.97
28701;BME280;15877;52.344;16.790;2023-02-20T00:13:26;101095.56;;;5.09;61.80
28701;BME280;15877;52.344;16.790;2023-02-20T00:16:00;101079.84;;;5.02;61.87
28701;BME280;15877;52.344;16.790;2023-02-20T00:18:32;101103.96;;;5.20;61.61
28701;BME280;15877;52.344;16.790;2023-02-20T00:21:05;101101.16;;;5.33;61.27
28701;BME280;15877;52.344;16.790;2023-02-20T00:23:38;101098.98;;;5.32;61.44
28701;BME280;15877;52.344;16.790;2023-02-20T00:26:11;101091.92;;;5.16;61.80
28701;BME280;15877;52.344;16.790;2023-02-20T00:28:45;101108.89;;;5.19;62.05
28701;BME280;15877;52.344;16.790;2023-02-20T00:31:17;101107.30;;;5.25;62.03
28701;BME280;15877;52.344;16.790;2023-02-20T00:33:51;101106.11;;;5.27;62.19
28701;BME280;15877;52.344;16.790;2023-02-20T00:36:24;101103.48;;;5.31;62.08
28701;BME280;15877;52.344;16.790;2023-02-20T00:38:57;101103.26;;;5.39;62.06
28701;BME280;15877;52.344;16.790;2023-02-20T00:41:29;101099.08;;;5.37;62.23
28701;BME280;15877;52.344;16.790;2023-02-20T00:44:02;101094.60;;;5.40;62.27
28701;BME280;15877;52.344;16.790;2023-02-20T00:46:35;101094.17;;;5.43;62.50
28701;BME280;15877;52.344;16.790;2023-02-20T00:49:08;101092.88;;;5.43;62.67
28701;BME280;15877;52.344;16.790;2023-02-20T00:51:50;101090.28;;;5.47;62.76
28701;BME280;15877;52.344;16.790;2023-02-20T00:54:22;101084.35;;;5.47;62.69
28701;BME280;15877;52.344;16.790;2023-02-20T00:56:55;101078.33;;;5.41;62.86
28701;BME280;15877;52.344;16.790;2023-02-20T00:59:27;101069.90;;;5.44;62.98
28701;BME280;15877;52.344;16.790;2023-02-20T01:02:00;101059.90;;;5.46;62.91
28701;BME280;15877;52.344;16.790;2023-02-20T01:04:33;101051.23;;;5.53;62.91
28701;BME280;15877;52.344;16.790;2023-02-20T01:07:06;101040.08;;;5.37;63.36
28701;BME280;15877;52.344;16.790;2023-02-20T01:09:38;101044.07;;;5.40;63.73
28701;BME280;15877;52.344;16.790;2023-02-20T01:12:11;101037.15;;;5.37;63.76
28701;BME280;15877;52.344;16.790;2023-02-20T01:14:46;101040.37;;;5.29;64.11
28701;BME280;15877;52.344;16.790;2023-02-20T01:17:18;101042.90;;;5.25;64.29
28701;BME280;15877;52.344;16.790;2023-02-20T01:19:51;101049.96;;;5.29;64.25
28701;BME280;15877;52.344;16.790;2023-02-20T01:22:23;101033.27;;;5.26;63.94
28701;BME280;15877;52.344;16.790;2023-02-20T01:24:56;101046.69;;;5.15;64.59
28701;BME280;15877;52.344;16.790;2023-02-20T01:27:28;101049.70;;;5.18;64.69
28701;BME280;15877;52.344;16.790;2023-02-20T01:30:03;101044.30;;;5.29;64.07
28701;BME280;15877;52.344;16.790;2023-02-20T01:32:36;101037.30;;;5.19;64.45
28701;BME280;15877;52.344;16.790;2023-02-20T01:35:09;101027.71;;;5.18;64.55
28701;BME280;15877;52.344;16.790;2023-02-20T01:37:41;101029.09;;;5.14;64.74
28701;BME280;15877;52.344;16.790;2023-02-20T01:40:18;101020.65;;;4.99;65.43
28701;BME280;15877;52.344;16.790;2023-02-20T01:42:50;100999.42;;;5.02;64.98
28701;BME280;15877;52.344;16.790;2023-02-20T01:45:35;101020.58;;;5.12;64.94
28701;BME280;15877;52.344;16.790;2023-02-20T01:48:19;101016.34;;;5.03;65.30
28701;BME280;15877;52.344;16.790;2023-02-20T01:50:56;101016.14;;;4.78;66.36
28701;BME280;15877;52.344;16.790;2023-02-20T01:53:31;101012.52;;;4.75;66.77
28701;BME280;15877;52.344;16.790;2023-02-20T01:56:08;101012.27;;;4.92;66.06
28701;BME280;15877;52.344;16.790;2023-02-20T01:58:44;101006.67;;;4.89;66.22
28701;BME280;15877;52.344;16.790;2023-02-20T02:01:18;101014.85;;;4.78;66.80
28701;BME280;15877;52.344;16.790;2023-02-20T02:03:56;101012.23;;;4.75;66.81
28701;BME280;15877;52.344;16.790;2023-02-20T02:06:32;100998.14;;;4.75;66.89
28701;BME280;15877;52.344;16.790;2023-02-20T02:09:14;100996.46;;;4.76;66.93
28701;BME280;15877;52.344;16.790;2023-02-20T02:11:49;101002.20;;;4.89;66.55
28701;BME280;15877;52.344;16.790;2023-02-20T02:14:24;101008.73;;;4.86;66.72
28701;BME280;15877;52.344;16.790;2023-02-20T02:17:15;100998.88;;;4.77;67.18
28701;BME280;15877;52.344;16.790;2023-02-20T02:26:12;100949.52;;;4.76;67.43
28701;BME280;15877;52.344;16.790;2023-02-20T02:29:22;100957.86;;;4.83;67.67
28701;BME280;15877;52.344;16.790;2023-02-20T02:32:17;100947.48;;;4.91;67.63
28701;BME280;15877;52.344;16.790;2023-02-20T02:35:22;100942.27;;;4.73;68.29
28701;BME280;15877;52.344;16.790;2023-02-20T02:38:04;100941.08;;;4.71;68.65
28701;BME280;15877;52.344;16.790;2023-02-20T02:40:42;100940.95;;;4.73;68.64
28701;BME280;15877;52.344;16.790;2023-02-20T02:43:22;100944.02;;;4.76;68.32
28701;BME280;15877;52.344;16.790;2023-02-20T02:46:03;100931.41;;;4.58;69.01
28701;BME280;15877;52.344;16.790;2023-02-20T02:48:42;100941.56;;;4.73;68.86
28701;BME280;15877;52.344;16.790;2023-02-20T02:51:20;100948.36;;;4.65;69.09
28701;BME280;15877;52.344;16.790;2023-02-20T02:54:15;100952.81;;;4.70;69.01
28701;BME280;15877;52.344;16.790;2023-02-20T02:56:49;100951.07;;;4.55;69.73
28701;BME280;15877;52.344;16.790;2023-02-20T02:59:24;100954.67;;;4.52;70.03
28701;BME280;15877;52.344;16.790;2023-02-20T03:02:02;100950.77;;;4.72;69.57
28701;BME280;15877;52.344;16.790;2023-02-20T03:04:36;100947.45;;;4.48;70.35
28701;BME280;15877;52.344;16.790;2023-02-20T03:07:12;100934.44;;;4.42;70.77
28701;BME280;15877;52.344;16.790;2023-02-20T03:09:49;100926.45;;;4.45;70.78
28701;BME280;15877;52.344;16.790;2023-02-20T03:12:24;100909.02;;;4.47;70.47
28701;BME280;15877;52.344;16.790;2023-02-20T03:14:57;100926.70;;;4.68;70.19
28701;BME280;15877;52.344;16.790;2023-02-20T03:17:51;100924.83;;;4.61;70.49
28701;BME280;15877;52.344;16.790;2023-02-20T03:20:26;100917.38;;;4.82;69.70
28701;BME280;15877;52.344;16.790;2023-02-20T03:23:00;100919.40;;;4.72;70.12
28701;BME280;15877;52.344;16.790;2023-02-20T03:25:38;100907.61;;;4.76;69.89
28701;BME280;15877;52.344;16.790;2023-02-20T03:28:15;100906.27;;;4.73;70.18
28701;BME280;15877;52.344;16.790;2023-02-20T03:30:53;100904.33;;;4.47;70.96
28701;BME280;15877;52.344;16.790;2023-02-20T03:33:31;100906.98;;;4.60;70.98
28701;BME280;15877;52.344;16.790;2023-02-20T03:36:26;100908.68;;;4.58;70.80
28701;BME280;15877;52.344;16.790;2023-02-20T03:39:20;100904.71;;;4.60;70.75
28701;BME280;15877;52.344;16.790;2023-02-20T03:42:14;100900.97;;;4.69;70.76
28701;BME280;15877;52.344;16.790;2023-02-20T03:45:11;100898.36;;;4.63;70.88
28701;BME280;15877;52.344;16.790;2023-02-20T03:47:46;100900.78;;;4.76;70.85
28701;BME280;15877;52.344;16.790;2023-02-20T03:50:24;100901.10;;;4.72;70.92
28701;BME280;15877;52.344;16.790;2023-02-20T03:52:57;100898.77;;;4.86;70.36
28701;BME280;15877;52.344;16.790;2023-02-20T03:55:30;100894.11;;;4.70;70.85
28701;BME280;15877;52.344;16.790;2023-02-20T03:58:09;100894.58;;;4.65;71.24
28701;BME280;15877;52.344;16.790;2023-02-20T04:00:52;100897.08;;;4.56;71.62
28701;BME280;15877;52.344;16.790;2023-02-20T04:03:32;100892.23;;;4.66;71.36
28701;BME280;15877;52.344;16.790;2023-02-20T04:06:07;100877.64;;;4.83;70.83
28701;BME280;15877;52.344;16.790;2023-02-20T04:08:43;100884.11;;;4.87;70.59
28701;BME280;15877;52.344;16.790;2023-02-20T04:11:21;100885.63;;;4.80;70.80
28701;BME280;15877;52.344;16.790;2023-02-20T04:13:56;100883.00;;;4.87;70.67
28701;BME280;15877;52.344;16.790;2023-02-20T04:16:30;100879.44;;;4.86;70.87
28701;BME280;15877;52.344;16.790;2023-02-20T04:19:04;100873.05;;;4.91;70.47
28701;BME280;15877;52.344;16.790;2023-02-20T04:21:40;100869.86;;;4.84;71.04
28701;BME280;15877;52.344;16.790;2023-02-20T04:24:16;100869.61;;;4.79;71.33
28701;BME280;15877;52.344;16.790;2023-02-20T04:26:50;100880.60;;;4.75;71.46
28701;BME280;15877;52.344;16.790;2023-02-20T04:29:23;100879.67;;;4.49;72.49
28701;BME280;15877;52.344;16.790;2023-02-20T04:31:56;100858.02;;;4.62;72.11
28701;BME280;15877;52.344;16.790;2023-02-20T04:34:33;100864.32;;;4.75;71.86
28701;BME280;15877;52.344;16.790;2023-02-20T04:37:09;100859.14;;;4.80;71.70
28701;BME280;15877;52.344;16.790;2023-02-20T04:39:42;100854.85;;;4.69;72.07
28701;BME280;15877;52.344;16.790;2023-02-20T04:42:16;100851.27;;;4.73;72.28
28701;BME280;15877;52.344;16.790;2023-02-20T04:44:49;100851.38;;;4.67;72.56
28701;BME280;15877;52.344;16.790;2023-02-20T04:47:21;100843.19;;;4.79;72.39
28701;BME280;15877;52.344;16.790;2023-02-20T04:49:54;100849.24;;;4.85;72.10
28701;BME280;15877;52.344;16.790;2023-02-20T04:52:27;100842.30;;;4.88;71.91
28701;BME280;15877;52.344;16.790;2023-02-20T04:54:59;100832.64;;;4.91;72.06
28701;BME280;15877;52.344;16.790;2023-02-20T04:57:32;100837.85;;;4.85;72.20
28701;BME280;15877;52.344;16.790;2023-02-20T05:00:06;100831.55;;;4.71;72.78
28701;BME280;15877;52.344;16.790;2023-02-20T05:02:40;100820.50;;;4.86;72.47
28701;BME280;15877;52.344;16.790;2023-02-20T05:05:16;100808.98;;;4.82;72.73
28701;BME280;15877;52.344;16.790;2023-02-20T05:07:52;100796.44;;;4.87;72.59
28701;BME280;15877;52.344;16.790;2023-02-20T05:10:26;100793.18;;;4.92;72.63
28701;BME280;15877;52.344;16.790;2023-02-20T05:13:00;100769.15;;;4.77;72.71
28701;BME280;15877;52.344;16.790;2023-02-20T05:15:33;100783.13;;;4.67;73.62
28701;BME280;15877;52.344;16.790;2023-02-20T05:18:06;100778.23;;;4.57;74.24
28701;BME280;15877;52.344;16.790;2023-02-20T05:20:38;100773.86;;;4.78;73.64
28701;BME280;15877;52.344;16.790;2023-02-20T05:23:30;100783.51;;;4.79;73.53
28701;BME280;15877;52.344;16.790;2023-02-20T05:26:03;100774.88;;;4.81;73.51
28701;BME280;15877;52.344;16.790;2023-02-20T05:28:39;100770.23;;;4.81;73.60
28701;BME280;15877;52.344;16.790;2023-02-20T05:31:13;100764.91;;;4.85;73.51
28701;BME280;15877;52.344;16.790;2023-02-20T05:33:48;100752.81;;;4.88;73.34
28701;BME280;15877;52.344;16.790;2023-02-20T05:36:21;100746.23;;;4.83;73.54
28701;BME280;15877;52.344;16.790;2023-02-20T05:38:53;100750.19;;;4.87;73.56
28701;BME280;15877;52.344;16.790;2023-02-20T05:41:25;100754.34;;;5.00;73.09
28701;BME280;15877;52.344;16.790;2023-02-20T05:43:58;100750.44;;;4.77;73.89
28701;BME280;15877;52.344;16.790;2023-02-20T05:46:31;100749.41;;;4.74;74.30
28701;BME280;15877;52.344;16.790;2023-02-20T05:49:03;100748.67;;;4.67;74.63
28701;BME280;15877;52.344;16.790;2023-02-20T05:51:37;100752.52;;;4.85;74.05
28701;BME280;15877;52.344;16.790;2023-02-20T05:54:09;100744.84;;;4.78;74.44
28701;BME280;15877;52.344;16.790;2023-02-20T05:56:43;100733.30;;;4.67;74.86
28701;BME280;15877;52.344;16.790;2023-02-20T05:59:19;100725.02;;;4.62;75.29
28701;BME280;15877;52.344;16.790;2023-02-20T06:01:56;100720.23;;;4.80;75.08
28701;BME280;15877;52.344;16.790;2023-02-20T06:04:30;100722.71;;;4.93;74.67
28701;BME280;15877;52.344;16.790;2023-02-20T06:07:02;100719.48;;;4.98;74.33
28701;BME280;15877;52.344;16.790;2023-02-20T06:09:35;100710.34;;;4.93;74.54
28701;BME280;15877;52.344;16.790;2023-02-20T06:12:08;100702.20;;;4.90;74.72
28701;BME280;15877;52.344;16.790;2023-02-20T06:14:41;100694.86;;;4.83;75.34
28701;BME280;15877;52.344;16.790;2023-02-20T06:17:16;100690.27;;;4.88;75.48
28701;BME280;15877;52.344;16.790;2023-02-20T06:19:49;100689.48;;;4.92;75.39
28701;BME280;15877;52.344;16.790;2023-02-20T06:22:22;100686.02;;;4.94;75.40
28701;BME280;15877;52.344;16.790;2023-02-20T06:24:54;100689.60;;;5.03;75.25
28701;BME280;15877;52.344;16.790;2023-02-20T06:27:27;100703.30;;;5.04;75.16
28701;BME280;15877;52.344;16.790;2023-02-20T06:29:59;100702.29;;;5.12;74.95
28701;BME280;15877;52.344;16.790;2023-02-20T06:32:32;100685.48;;;4.96;75.55
28701;BME280;15877;52.344;16.790;2023-02-20T06:35:06;100679.55;;;4.99;75.83
28701;BME280;15877;52.344;16.790;2023-02-20T06:37:38;100671.64;;;4.87;76.39
28701;BME280;15877;52.344;16.790;2023-02-20T06:40:12;100668.86;;;5.01;76.12
28701;BME280;15877;52.344;16.790;2023-02-20T06:42:45;100658.41;;;4.89;76.72
28701;BME280;15877;52.344;16.790;2023-02-20T06:45:18;100657.59;;;5.02;76.33
28701;BME280;15877;52.344;16.790;2023-02-20T06:47:55;100655.88;;;5.06;76.44
28701;BME280;15877;52.344;16.790;2023-02-20T06:50:28;100658.13;;;5.15;76.35
28701;BME280;15877;52.344;16.790;2023-02-20T06:53:02;100652.11;;;5.04;76.50
28701;BME280;15877;52.344;16.790;2023-02-20T06:55:35;100641.14;;;5.10;76.35
28701;BME280;15877;52.344;16.790;2023-02-20T06:58:11;100640.29;;;5.27;75.92
28701;BME280;15877;52.344;16.790;2023-02-20T07:00:43;100628.13;;;5.15;76.53
28701;BME280;15877;52.344;16.790;2023-02-20T07:03:16;100620.99;;;5.19;76.51
28701;BME280;15877;52.344;16.790;2023-02-20T07:05:49;100608.88;;;5.17;76.14
28701;BME280;15877;52.344;16.790;2023-02-20T07:08:21;100618.88;;;5.02;77.19
28701;BME280;15877;52.344;16.790;2023-02-20T07:10:54;100620.23;;;5.02;77.69
28701;BME280;15877;52.344;16.790;2023-02-20T07:13:26;100618.15;;;5.27;76.81
28701;BME280;15877;52.344;16.790;2023-02-20T07:15:59;100612.44;;;5.43;76.11
28701;BME280;15877;52.344;16.790;2023-02-20T07:18:31;100599.95;;;5.47;75.91
28701;BME280;15877;52.344;16.790;2023-02-20T07:21:04;100599.71;;;5.20;76.98
28701;BME280;15877;52.344;16.790;2023-02-20T07:23:37;100589.80;;;5.23;77.38
28701;BME280;15877;52.344;16.790;2023-02-20T07:26:18;100576.51;;;5.35;77.10
28701;BME280;15877;52.344;16.790;2023-02-20T07:28:50;100566.19;;;5.42;76.92
28701;BME280;15877;52.344;16.790;2023-02-20T07:31:25;100562.05;;;5.17;77.79
28701;BME280;15877;52.344;16.790;2023-02-20T07:33:57;100562.23;;;5.33;77.52
28701;BME280;15877;52.344;16.790;2023-02-20T07:36:37;100552.13;;;5.77;75.79
28701;BME280;15877;52.344;16.790;2023-02-20T07:39:11;100547.70;;;5.54;76.66
28701;BME280;15877;52.344;16.790;2023-02-20T07:41:43;100535.12;;;5.62;76.90
28701;BME280;15877;52.344;16.790;2023-02-20T07:44:42;100533.02;;;5.48;77.54
28701;BME280;15877;52.344;16.790;2023-02-20T07:47:16;100526.05;;;5.44;78.52
28701;BME280;15877;52.344;16.790;2023-02-20T07:49:49;100524.05;;;5.56;78.10
28701;BME280;15877;52.344;16.790;2023-02-20T07:52:21;100522.56;;;5.51;78.32
28701;BME280;15877;52.344;16.790;2023-02-20T07:54:54;100522.28;;;5.61;78.19
28701;BME280;15877;52.344;16.790;2023-02-20T07:57:27;100525.96;;;5.69;78.12
28701;BME280;15877;52.344;16.790;2023-02-20T08:00:00;100517.53;;;5.39;79.60
28701;BME280;15877;52.344;16.790;2023-02-20T08:02:41;100516.47;;;5.55;79.82
28701;BME280;15877;52.344;16.790;2023-02-20T08:05:14;100518.29;;;5.63;79.74
28701;BME280;15877;52.344;16.790;2023-02-20T08:07:48;100518.25;;;5.53;80.36
28701;BME280;15877;52.344;16.790;2023-02-20T08:10:23;100524.96;;;5.63;80.59
28701;BME280;15877;52.344;16.790;2023-02-20T08:12:56;100518.50;;;5.79;80.32
28701;BME280;15877;52.344;16.790;2023-02-20T08:15:28;100513.38;;;5.84;80.64
28701;BME280;15877;52.344;16.790;2023-02-20T08:18:01;100511.45;;;5.92;80.21
28701;BME280;15877;52.344;16.790;2023-02-20T08:20:42;100511.23;;;5.69;81.35
28701;BME280;15877;52.344;16.790;2023-02-20T08:23:19;100504.35;;;5.83;81.39
28701;BME280;15877;52.344;16.790;2023-02-20T08:25:52;100503.73;;;5.83;81.77
28701;BME280;15877;52.344;16.790;2023-02-20T08:28:25;100504.17;;;5.90;81.85
28701;BME280;15877;52.344;16.790;2023-02-20T08:30:57;100504.89;;;5.77;82.47
28701;BME280;15877;52.344;16.790;2023-02-20T08:33:30;100494.37;;;5.83;82.72
28701;BME280;15877;52.344;16.790;2023-02-20T08:36:03;100486.16;;;5.74;83.27
28701;BME280;15877;52.344;16.790;2023-02-20T08:38:37;100467.53;;;5.78;83.20
28701;BME280;15877;52.344;16.790;2023-02-20T08:41:11;100475.08;;;5.81;83.93
28701;BME280;15877;52.344;16.790;2023-02-20T08:43:44;100467.59;;;5.91;83.85
28701;BME280;15877;52.344;16.790;2023-02-20T08:46:17;100452.38;;;6.12;83.47
28701;BME280;15877;52.344;16.790;2023-02-20T08:48:50;100443.13;;;6.21;83.60
28701;BME280;15877;52.344;16.790;2023-02-20T08:51:23;100439.98;;;6.26;83.58
28701;BME280;15877;52.344;16.790;2023-02-20T08:53:56;100432.27;;;6.15;84.48
28701;BME280;15877;52.344;16.790;2023-02-20T08:56:29;100423.77;;;6.16;84.65
28701;BME280;15877;52.344;16.790;2023-02-20T08:59:01;100419.65;;;6.36;84.57
28701;BME280;15877;52.344;16.790;2023-02-20T09:01:34;100411.49;;;6.47;84.42
28701;BME280;15877;52.344;16.790;2023-02-20T09:04:07;100403.29;;;6.42;84.87
28701;BME280;15877;52.344;16.790;2023-02-20T09:06:40;100406.38;;;6.60;84.78
28701;BME280;15877;52.344;16.790;2023-02-20T09:09:12;100386.56;;;6.61;84.81
28701;BME280;15877;52.344;16.790;2023-02-20T09:11:45;100389.45;;;6.54;85.58
28701;BME280;15877;52.344;16.790;2023-02-20T09:14:18;100378.30;;;6.41;86.56
28701;BME280;15877;52.344;16.790;2023-02-20T09:16:53;100368.67;;;6.49;87.50
28701;BME280;15877;52.344;16.790;2023-02-20T09:19:26;100364.96;;;6.51;87.35
28701;BME280;15877;52.344;16.790;2023-02-20T09:21:59;100360.70;;;6.51;87.66
28701;BME280;15877;52.344;16.790;2023-02-20T09:24:31;100345.00;;;6.70;87.23
28701;BME280;15877;52.344;16.790;2023-02-20T09:27:05;100340.53;;;6.68;87.35
28701;BME280;15877;52.344;16.790;2023-02-20T09:29:38;100330.57;;;6.74;87.17
28701;BME280;15877;52.344;16.790;2023-02-20T09:32:14;100317.11;;;6.84;86.68
28701;BME280;15877;52.344;16.790;2023-02-20T09:34:46;100311.59;;;6.84;86.65
28701;BME280;15877;52.344;16.790;2023-02-20T09:37:19;100300.60;;;6.82;86.82
28701;BME280;15877;52.344;16.790;2023-02-20T09:39:51;100278.95;;;6.94;87.06
28701;BME280;15877;52.344;16.790;2023-02-20T09:42:31;100270.15;;;7.04;86.64
28701;BME280;15877;52.344;16.790;2023-02-20T09:45:11;100259.33;;;7.18;86.01
28701;BME280;15877;52.344;16.790;2023-02-20T09:47:59;100267.20;;;7.18;85.73
28701;BME280;15877;52.344;16.790;2023-02-20T09:50:42;100258.23;;;7.19;85.39
28701;BME280;15877;52.344;16.790;2023-02-20T09:53:22;100258.58;;;7.35;85.22
28701;BME280;15877;52.344;16.790;2023-02-20T09:55:57;100257.97;;;7.40;84.76
28701;BME280;15877;52.344;16.790;2023-02-20T09:58:38;100244.09;;;7.28;85.21
28701;BME280;15877;52.344;16.790;2023-02-20T10:01:15;100245.67;;;7.31;84.96
28701;BME280;15877;52.344;16.790;2023-02-20T10:03:54;100238.90;;;7.36;84.78
28701;BME280;15877;52.344;16.790;2023-02-20T10:06:31;100230.95;;;7.40;84.10
28701;BME280;15877;52.344;16.790;2023-02-20T10:09:08;100242.78;;;7.42;83.68
28701;BME280;15877;52.344;16.790;2023-02-20T10:11:50;100225.35;;;7.40;83.73
28701;BME280;15877;52.344;16.790;2023-02-20T10:14:46;100211.11;;;7.55;83.85
28701;BME280;15877;52.344;16.790;2023-02-20T10:17:31;100207.02;;;7.69;82.80
28701;BME280;15877;52.344;16.790;2023-02-20T10:20:11;100198.08;;;7.70;82.22
28701;BME280;15877;52.344;16.790;2023-02-20T10:22:50;100179.20;;;7.87;82.15
28701;BME280;15877;52.344;16.790;2023-02-20T10:25:29;100160.13;;;7.89;81.26
28701;BME280;15877;52.344;16.790;2023-02-20T10:28:05;100154.83;;;7.85;81.11
28701;BME280;15877;52.344;16.790;2023-02-20T10:30:41;100160.09;;;7.98;80.85
28701;BME280;15877;52.344;16.790;2023-02-20T10:33:23;100144.98;;;8.06;80.48
28701;BME280;15877;52.344;16.790;2023-02-20T10:36:01;100144.02;;;8.12;80.21
28701;BME280;15877;52.344;16.790;2023-02-20T10:38:42;100122.28;;;8.12;79.87
28701;BME280;15877;52.344;16.790;2023-02-20T10:41:19;100105.73;;;7.99;80.34
28701;BME280;15877;52.344;16.790;2023-02-20T10:44:04;100108.86;;;8.06;80.48
28701;BME280;15877;52.344;16.790;2023-02-20T10:46:43;100090.14;;;8.08;80.31
28701;BME280;15877;52.344;16.790;2023-02-20T10:49:23;100098.49;;;8.18;80.51
28701;BME280;15877;52.344;16.790;2023-02-20T10:52:03;100082.83;;;8.32;79.19
28701;BME280;15877;52.344;16.790;2023-02-20T10:54:40;100098.59;;;8.36;78.87
28701;BME280;15877;52.344;16.790;2023-02-20T10:57:17;100089.52;;;8.43;78.15
28701;BME280;15877;52.344;16.790;2023-02-20T10:59:54;100096.91;;;8.38;78.22
28701;BME280;15877;52.344;16.790;2023-02-20T11:02:35;100085.45;;;8.55;77.60
28701;BME280;15877;52.344;16.790;2023-02-20T11:05:12;100078.45;;;8.63;76.88
28701;BME280;15877;52.344;16.790;2023-02-20T11:07:46;100070.33;;;8.54;76.81
28701;BME280;15877;52.344;16.790;2023-02-20T11:10:19;100078.05;;;8.73;76.12
28701;BME280;15877;52.344;16.790;2023-02-20T11:12:55;100068.15;;;8.75;75.94
28701;BME280;15877;52.344;16.790;2023-02-20T11:15:32;100055.21;;;8.84;75.19
28701;BME280;15877;52.344;16.790;2023-02-20T11:18:15;100064.24;;;8.88;74.90
28701;BME280;15877;52.344;16.790;2023-02-20T11:20:51;100051.83;;;8.96;74.79
28701;BME280;15877;52.344;16.790;2023-02-20T11:23:41;100052.73;;;8.97;74.84
28701;BME280;15877;52.344;16.790;2023-02-20T11:26:32;100048.02;;;9.14;74.27
28701;BME280;15877;52.344;16.790;2023-02-20T11:29:11;100058.61;;;9.13;73.46
28701;BME280;15877;52.344;16.790;2023-02-20T11:31:45;100047.46;;;9.21;73.05
28701;BME280;15877;52.344;16.790;2023-02-20T11:34:20;100046.45;;;9.21;72.82
28701;BME280;15877;52.344;16.790;2023-02-20T11:36:55;100021.35;;;9.29;73.03
28701;BME280;15877;52.344;16.790;2023-02-20T11:39:36;100017.83;;;9.38;72.96
28701;BME280;15877;52.344;16.790;2023-02-20T11:42:13;100016.55;;;9.59;72.14
28701;BME280;15877;52.344;16.790;2023-02-20T11:44:46;100010.63;;;9.72;71.77
28701;BME280;15877;52.344;16.790;2023-02-20T11:47:39;100011.53;;;9.87;70.48
28701;BME280;15877;52.344;16.790;2023-02-20T11:50:14;100010.62;;;9.84;69.97
28701;BME280;15877;52.344;16.790;2023-02-20T11:53:01;99990.58;;;9.81;69.51
28701;BME280;15877;52.344;16.790;2023-02-20T11:55:38;100004.90;;;9.98;68.95
28701;BME280;15877;52.344;16.790;2023-02-20T11:58:24;100010.23;;;9.90;68.92
28701;BME280;15877;52.344;16.790;2023-02-20T12:00:57;99998.27;;;10.03;68.67
28701;BME280;15877;52.344;16.790;2023-02-20T12:03:31;99990.89;;;9.94;68.71
28701;BME280;15877;52.344;16.790;2023-02-20T12:06:37;99993.23;;;9.93;68.47
28701;BME280;15877;52.344;16.790;2023-02-20T12:09:14;99988.23;;;9.92;68.23
28701;BME280;15877;52.344;16.790;2023-02-20T12:11:50;99986.66;;;10.01;68.06
28701;BME280;15877;52.344;16.790;2023-02-20T12:14:24;99979.97;;;10.08;66.99
28701;BME280;15877;52.344;16.790;2023-02-20T12:17:05;99974.92;;;10.15;66.49
28701;BME280;15877;52.344;16.790;2023-02-20T12:19:50;99980.99;;;10.17;66.23
28701;BME280;15877;52.344;16.790;2023-02-20T12:22:28;99979.01;;;10.25;66.53
28701;BME280;15877;52.344;16.790;2023-02-20T12:25:14;99978.50;;;10.30;66.45
28701;BME280;15877;52.344;16.790;2023-02-20T12:27:58;99967.96;;;10.21;66.20
28701;BME280;15877;52.344;16.790;2023-02-20T12:30:45;99970.68;;;10.05;66.42
28701;BME280;15877;52.344;16.790;2023-02-20T12:33:47;99963.91;;;10.02;66.45
28701;BME280;15877;52.344;16.790;2023-02-20T12:36:29;99952.51;;;10.02;66.63
28701;BME280;15877;52.344;16.790;2023-02-20T12:39:11;99962.49;;;10.15;66.64
28701;BME280;15877;52.344;16.790;2023-02-20T12:42:04;99951.27;;;10.10;66.57
28701;BME280;15877;52.344;16.790;2023-02-20T12:44:56;99942.79;;;10.05;67.00
28701;BME280;15877;52.344;16.790;2023-02-20T12:47:33;99951.67;;;10.13;66.93
28701;BME280;15877;52.344;16.790;2023-02-20T12:50:27;99940.85;;;10.26;66.26
28701;BME280;15877;52.344;16.790;2023-02-20T12:53:11;99932.52;;;10.16;66.60
28701;BME280;15877;52.344;16.790;2023-02-20T12:55:55;99936.73;;;10.12;67.25
28701;BME280;15877;52.344;16.790;2023-02-20T12:58:39;99932.24;;;10.13;67.47
28701;BME280;15877;52.344;16.790;2023-02-20T13:01:18;99929.00;;;10.19;67.43
28701;BME280;15877;52.344;16.790;2023-02-20T13:04:10;99910.29;;;10.15;67.23
28701;BME280;15877;52.344;16.790;2023-02-20T13:06:55;99917.23;;;10.22;67.59
28701;BME280;15877;52.344;16.790;2023-02-20T13:09:34;99920.92;;;10.15;67.94
28701;BME280;15877;52.344;16.790;2023-02-20T13:12:11;99901.98;;;10.27;67.76
28701;BME280;15877;52.344;16.790;2023-02-20T13:14:57;99900.66;;;10.23;68.00
28701;BME280;15877;52.344;16.790;2023-02-20T13:17:37;99908.59;;;10.12;68.43
28701;BME280;15877;52.344;16.790;2023-02-20T13:20:18;99912.55;;;10.32;68.00
28701;BME280;15877;52.344;16.790;2023-02-20T13:23:23;99903.22;;;10.30;68.09
28701;BME280;15877;52.344;16.790;2023-02-20T13:25:58;99900.00;;;10.32;68.24
28701;BME280;15877;52.344;16.790;2023-02-20T13:28:39;99904.05;;;10.32;68.17
28701;BME280;15877;52.344;16.790;2023-02-20T13:31:24;99893.75;;;10.44;67.93
28701;BME280;15877;52.344;16.790;2023-02-20T13:34:32;99890.67;;;10.34;68.51
28701;BME280;15877;52.344;16.790;2023-02-20T13:40:44;99894.77;;;10.32;68.73
28701;BME280;15877;52.344;16.790;2023-02-20T13:43:26;99888.45;;;10.29;69.13
28701;BME280;15877;52.344;16.790;2023-02-20T13:46:18;99873.45;;;10.22;69.82
28701;BME280;15877;52.344;16.790;2023-02-20T13:48:56;99865.15;;;10.14;69.95
28701;BME280;15877;52.344;16.790;2023-02-20T13:51:36;99878.25;;;10.36;69.29